sensor_id;sensor_type;location;lat;lon;timestamp;P1;durP1;ratioP1;P2;durP2;ratioP2
51006;SDS011;37034;47.886;-3.904;2023-07-29T00:01:34;12.38;;;2.72;;
51006;SDS011;37034;47.886;-3.904;2023-07-29T00:03:59;21.65;;;3.58;;
51006;SDS011;37034;47.886;-3.904;2023-07-29T00:06:26;17.80;;;2.92;;
51006;SDS011;37034;47.886;-3.904;2023-07-29T00:08:52;16.80;;;3.22;;
51006;SDS011;37034;47.886;-3.904;2023-07-29T00:11:17;13.88;;;2.70;;
51006;SDS011;37034;47.886;-3.904;2023-07-29T00:13:43;17.48;;;2.55;;
51006;SDS011;37034;47.886;-3.904;2023-07-29T00:16:09;19.20;;;3.28;;
51006;SDS011;37034;47.886;-3.904;2023-07-29T00:18:35;18.40;;;2.95;;
51006;SDS011;37034;47.886;-3.904;2023-07-29T00:21:01;19.75;;;3.58;;
51006;SDS011;37034;47.886;-3.904;2023-07-29T00:23:27;16.02;;;3.53;;
51006;SDS011;37034;47.886;-3.904;2023-07-29T00:25:52;15.70;;;3.25;;
51006;SDS011;37034;47.886;-3.904;2023-07-29T00:28:18;17.35;;;3.28;;
51006;SDS011;37034;47.886;-3.904;2023-07-29T00:30:43;19.67;;;3.13;;
51006;SDS011;37034;47.886;-3.904;2023-07-29T00:33:09;17.25;;;3.10;;
51006;SDS011;37034;47.886;-3.904;2023-07-29T00:35:35;14.57;;;3.22;;
51006;SDS011;37034;47.886;-3.904;2023-07-29T00:38:00;22.00;;;3.35;;
51006;SDS011;37034;47.886;-3.904;2023-07-29T00:40:27;16.27;;;2.88;;
51006;SDS011;37034;47.886;-3.904;2023-07-29T00:42:54;16.98;;;3.25;;
51006;SDS011;37034;47.886;-3.904;2023-07-29T00:45:19;17.95;;;3.53;;
51006;SDS011;37034;47.886;-3.904;2023-07-29T00:47:45;17.05;;;2.72;;
51006;SDS011;37034;47.886;-3.904;2023-07-29T00:52:38;18.65;;;2.90;;
51006;SDS011;37034;47.886;-3.904;2023-07-29T00:55:04;17.75;;;3.38;;
51006;SDS011;37034;47.886;-3.904;2023-07-29T00:57:31;15.20;;;2.53;;
51006;SDS011;37034;47.886;-3.904;2023-07-29T01:02:24;15.68;;;3.00;;
51006;SDS011;37034;47.886;-3.904;2023-07-29T01:04:54;13.77;;;2.35;;
51006;SDS011;37034;47.886;-3.904;2023-07-29T01:08:11;16.23;;;2.67;;
51006;SDS011;37034;47.886;-3.904;2023-07-29T01:13:29;15.80;;;3.00;;
51006;SDS011;37034;47.886;-3.904;2023-07-29T01:16:31;17.83;;;3.10;;
51006;SDS011;37034;47.886;-3.904;2023-07-29T01:18:57;16.73;;;3.05;;
51006;SDS011;37034;47.886;-3.904;2023-07-29T01:21:29;13.23;;;3.20;;
51006;SDS011;37034;47.886;-3.904;2023-07-29T01:23:58;16.98;;;3.95;;
51006;SDS011;37034;47.886;-3.904;2023-07-29T01:26:25;20.55;;;3.30;;
51006;SDS011;37034;47.886;-3.904;2023-07-29T01:28:50;20.73;;;4.13;;
51006;SDS011;37034;47.886;-3.904;2023-07-29T01:31:17;19.23;;;3.65;;
51006;SDS011;37034;47.886;-3.904;2023-07-29T01:33:48;16.20;;;2.95;;
51006;SDS011;37034;47.886;-3.904;2023-07-29T01:36:38;15.07;;;3.22;;
51006;SDS011;37034;47.886;-3.904;2023-07-29T01:39:06;14.77;;;3.13;;
51006;SDS011;37034;47.886;-3.904;2023-07-29T01:41:34;15.57;;;2.70;;
51006;SDS011;37034;47.886;-3.904;2023-07-29T01:44:00;15.35;;;2.70;;
51006;SDS011;37034;47.886;-3.904;2023-07-29T01:46:26;18.15;;;3.22;;
51006;SDS011;37034;47.886;-3.904;2023-07-29T01:48:52;16.80;;;2.85;;
51006;SDS011;37034;47.886;-3.904;2023-07-29T01:51:19;13.48;;;3.10;;
51006;SDS011;37034;47.886;-3.904;2023-07-29T01:53:45;12.18;;;2.60;;
51006;SDS011;37034;47.886;-3.904;2023-07-29T01:56:11;15.10;;;2.83;;
51006;SDS011;37034;47.886;-3.904;2023-07-29T01:58:37;12.88;;;3.28;;
51006;SDS011;37034;47.886;-3.904;2023-07-29T02:01:03;13.48;;;2.72;;
51006;SDS011;37034;47.886;-3.904;2023-07-29T02:03:29;16.50;;;2.75;;
51006;SDS011;37034;47.886;-3.904;2023-07-29T02:05:54;15.85;;;3.10;;
51006;SDS011;37034;47.886;-3.904;2023-07-29T02:08:20;12.18;;;2.67;;
51006;SDS011;37034;47.886;-3.904;2023-07-29T02:10:45;16.30;;;3.25;;
51006;SDS011;37034;47.886;-3.904;2023-07-29T02:13:11;16.27;;;2.90;;
51006;SDS011;37034;47.886;-3.904;2023-07-29T02:15:37;14.02;;;2.70;;
51006;SDS011;37034;47.886;-3.904;2023-07-29T02:18:03;17.20;;;3.13;;
51006;SDS011;37034;47.886;-3.904;2023-07-29T02:20:29;16.27;;;3.22;;
51006;SDS011;37034;47.886;-3.904;2023-07-29T02:22:54;16.15;;;2.83;;
51006;SDS011;37034;47.886;-3.904;2023-07-29T02:25:20;24.13;;;3.78;;
51006;SDS011;37034;47.886;-3.904;2023-07-29T02:27:45;15.93;;;3.03;;
51006;SDS011;37034;47.886;-3.904;2023-07-29T02:30:11;14.35;;;2.88;;
51006;SDS011;37034;47.886;-3.904;2023-07-29T02:32:37;15.23;;;3.40;;
51006;SDS011;37034;47.886;-3.904;2023-07-29T02:35:03;16.70;;;3.15;;
51006;SDS011;37034;47.886;-3.904;2023-07-29T02:39:55;19.95;;;3.85;;
51006;SDS011;37034;47.886;-3.904;2023-07-29T02:42:21;19.65;;;3.55;;
51006;SDS011;37034;47.886;-3.904;2023-07-29T02:44:46;13.00;;;3.03;;
51006;SDS011;37034;47.886;-3.904;2023-07-29T02:47:12;15.77;;;2.83;;
51006;SDS011;37034;47.886;-3.904;2023-07-29T02:49:38;16.00;;;3.38;;
51006;SDS011;37034;47.886;-3.904;2023-07-29T02:52:03;19.45;;;3.33;;
51006;SDS011;37034;47.886;-3.904;2023-07-29T02:54:30;15.98;;;3.28;;
51006;SDS011;37034;47.886;-3.904;2023-07-29T02:56:55;16.48;;;2.58;;
51006;SDS011;37034;47.886;-3.904;2023-07-29T02:59:21;14.45;;;2.90;;
51006;SDS011;37034;47.886;-3.904;2023-07-29T03:01:47;16.58;;;3.00;;
51006;SDS011;37034;47.886;-3.904;2023-07-29T03:04:12;17.75;;;2.75;;
51006;SDS011;37034;47.886;-3.904;2023-07-29T03:06:38;16.63;;;3.28;;
51006;SDS011;37034;47.886;-3.904;2023-07-29T03:09:04;16.20;;;2.42;;
51006;SDS011;37034;47.886;-3.904;2023-07-29T03:11:29;17.77;;;3.25;;
51006;SDS011;37034;47.886;-3.904;2023-07-29T03:13:56;11.55;;;2.08;;
51006;SDS011;37034;47.886;-3.904;2023-07-29T03:16:21;17.73;;;2.75;;
51006;SDS011;37034;47.886;-3.904;2023-07-29T03:18:48;11.18;;;1.88;;
51006;SDS011;37034;47.886;-3.904;2023-07-29T03:21:14;18.58;;;2.47;;
51006;SDS011;37034;47.886;-3.904;2023-07-29T03:23:40;13.75;;;2.28;;
51006;SDS011;37034;47.886;-3.904;2023-07-29T03:26:06;13.13;;;2.50;;
51006;SDS011;37034;47.886;-3.904;2023-07-29T03:28:35;12.07;;;2.40;;
51006;SDS011;37034;47.886;-3.904;2023-07-29T03:31:02;13.88;;;2.30;;
51006;SDS011;37034;47.886;-3.904;2023-07-29T03:33:28;11.35;;;1.63;;
51006;SDS011;37034;47.886;-3.904;2023-07-29T03:35:54;13.25;;;1.98;;
51006;SDS011;37034;47.886;-3.904;2023-07-29T03:38:20;13.07;;;2.90;;
51006;SDS011;37034;47.886;-3.904;2023-07-29T03:40:46;9.93;;;1.88;;
51006;SDS011;37034;47.886;-3.904;2023-07-29T03:43:12;10.73;;;1.92;;
51006;SDS011;37034;47.886;-3.904;2023-07-29T03:45:40;9.52;;;1.48;;
51006;SDS011;37034;47.886;-3.904;2023-07-29T03:48:06;7.63;;;1.55;;
51006;SDS011;37034;47.886;-3.904;2023-07-29T03:50:33;8.50;;;1.33;;
51006;SDS011;37034;47.886;-3.904;2023-07-29T03:53:03;6.18;;;1.67;;
51006;SDS011;37034;47.886;-3.904;2023-07-29T03:55:29;10.27;;;1.65;;
51006;SDS011;37034;47.886;-3.904;2023-07-29T03:57:56;6.97;;;1.60;;
51006;SDS011;37034;47.886;-3.904;2023-07-29T04:00:22;6.53;;;2.03;;
51006;SDS011;37034;47.886;-3.904;2023-07-29T04:02:48;9.70;;;2.17;;
51006;SDS011;37034;47.886;-3.904;2023-07-29T04:05:14;9.57;;;1.85;;
51006;SDS011;37034;47.886;-3.904;2023-07-29T04:07:40;9.23;;;1.67;;
51006;SDS011;37034;47.886;-3.904;2023-07-29T04:10:06;8.93;;;1.60;;
51006;SDS011;37034;47.886;-3.904;2023-07-29T04:12:32;11.93;;;2.53;;
51006;SDS011;37034;47.886;-3.904;2023-07-29T04:14:57;9.73;;;2.00;;
51006;SDS011;37034;47.886;-3.904;2023-07-29T04:17:23;12.63;;;2.38;;
51006;SDS011;37034;47.886;-3.904;2023-07-29T04:19:49;11.25;;;2.20;;
51006;SDS011;37034;47.886;-3.904;2023-07-29T04:22:15;9.32;;;2.45;;
51006;SDS011;37034;47.886;-3.904;2023-07-29T04:24:41;10.27;;;2.22;;
51006;SDS011;37034;47.886;-3.904;2023-07-29T04:27:07;8.15;;;2.88;;
51006;SDS011;37034;47.886;-3.904;2023-07-29T04:29:32;9.23;;;2.30;;
51006;SDS011;37034;47.886;-3.904;2023-07-29T04:32:00;8.77;;;2.10;;
51006;SDS011;37034;47.886;-3.904;2023-07-29T04:34:26;14.80;;;3.17;;
51006;SDS011;37034;47.886;-3.904;2023-07-29T04:36:52;10.73;;;2.42;;
51006;SDS011;37034;47.886;-3.904;2023-07-29T04:39:18;12.98;;;2.40;;
51006;SDS011;37034;47.886;-3.904;2023-07-29T04:41:43;10.20;;;2.57;;
51006;SDS011;37034;47.886;-3.904;2023-07-29T04:44:09;6.25;;;2.55;;
51006;SDS011;37034;47.886;-3.904;2023-07-29T04:46:35;13.85;;;2.90;;
51006;SDS011;37034;47.886;-3.904;2023-07-29T04:51:27;12.75;;;2.50;;
51006;SDS011;37034;47.886;-3.904;2023-07-29T04:53:53;12.90;;;3.05;;
51006;SDS011;37034;47.886;-3.904;2023-07-29T04:56:18;9.77;;;2.77;;
51006;SDS011;37034;47.886;-3.904;2023-07-29T04:58:44;15.75;;;3.35;;
51006;SDS011;37034;47.886;-3.904;2023-07-29T05:01:10;11.35;;;2.65;;
51006;SDS011;37034;47.886;-3.904;2023-07-29T05:03:35;15.68;;;2.55;;
51006;SDS011;37034;47.886;-3.904;2023-07-29T05:08:28;15.20;;;3.28;;
51006;SDS011;37034;47.886;-3.904;2023-07-29T05:10:54;11.85;;;2.50;;
51006;SDS011;37034;47.886;-3.904;2023-07-29T05:13:21;13.07;;;2.78;;
51006;SDS011;37034;47.886;-3.904;2023-07-29T05:15:48;13.68;;;2.90;;
51006;SDS011;37034;47.886;-3.904;2023-07-29T05:20:40;12.30;;;2.67;;
51006;SDS011;37034;47.886;-3.904;2023-07-29T05:23:06;10.48;;;3.15;;
51006;SDS011;37034;47.886;-3.904;2023-07-29T05:25:32;9.82;;;3.22;;
51006;SDS011;37034;47.886;-3.904;2023-07-29T05:27:59;15.02;;;3.55;;
51006;SDS011;37034;47.886;-3.904;2023-07-29T05:30:25;11.05;;;2.83;;
51006;SDS011;37034;47.886;-3.904;2023-07-29T05:32:52;14.25;;;3.28;;
51006;SDS011;37034;47.886;-3.904;2023-07-29T05:35:17;13.63;;;2.80;;
51006;SDS011;37034;47.886;-3.904;2023-07-29T05:37:43;17.60;;;3.38;;
51006;SDS011;37034;47.886;-3.904;2023-07-29T05:40:09;15.38;;;3.40;;
51006;SDS011;37034;47.886;-3.904;2023-07-29T05:42:34;13.02;;;3.50;;
51006;SDS011;37034;47.886;-3.904;2023-07-29T05:45:00;14.68;;;3.88;;
51006;SDS011;37034;47.886;-3.904;2023-07-29T05:47:26;15.80;;;3.20;;
51006;SDS011;37034;47.886;-3.904;2023-07-29T05:49:52;15.27;;;4.53;;
51006;SDS011;37034;47.886;-3.904;2023-07-29T05:52:18;18.80;;;3.80;;
51006;SDS011;37034;47.886;-3.904;2023-07-29T05:54:44;16.08;;;2.95;;
51006;SDS011;37034;47.886;-3.904;2023-07-29T05:57:10;15.55;;;3.45;;
51006;SDS011;37034;47.886;-3.904;2023-07-29T05:59:37;13.10;;;3.40;;
51006;SDS011;37034;47.886;-3.904;2023-07-29T06:02:03;15.77;;;3.30;;
51006;SDS011;37034;47.886;-3.904;2023-07-29T06:04:29;12.05;;;3.60;;
51006;SDS011;37034;47.886;-3.904;2023-07-29T06:06:54;13.80;;;3.60;;
51006;SDS011;37034;47.886;-3.904;2023-07-29T06:09:21;17.20;;;3.28;;
51006;SDS011;37034;47.886;-3.904;2023-07-29T06:14:12;12.77;;;3.42;;
51006;SDS011;37034;47.886;-3.904;2023-07-29T06:16:38;13.65;;;2.80;;
51006;SDS011;37034;47.886;-3.904;2023-07-29T06:19:04;21.30;;;4.00;;
51006;SDS011;37034;47.886;-3.904;2023-07-29T06:21:30;10.75;;;2.70;;
51006;SDS011;37034;47.886;-3.904;2023-07-29T06:23:56;14.52;;;3.33;;
51006;SDS011;37034;47.886;-3.904;2023-07-29T06:26:21;17.27;;;3.35;;
51006;SDS011;37034;47.886;-3.904;2023-07-29T06:28:47;17.13;;;3.92;;
51006;SDS011;37034;47.886;-3.904;2023-07-29T06:31:13;13.68;;;3.17;;
51006;SDS011;37034;47.886;-3.904;2023-07-29T06:33:38;13.98;;;2.97;;
51006;SDS011;37034;47.886;-3.904;2023-07-29T06:36:04;18.60;;;3.25;;
51006;SDS011;37034;47.886;-3.904;2023-07-29T06:38:30;16.45;;;3.63;;
51006;SDS011;37034;47.886;-3.904;2023-07-29T06:40:56;15.30;;;3.05;;
51006;SDS011;37034;47.886;-3.904;2023-07-29T06:43:21;17.35;;;3.30;;
51006;SDS011;37034;47.886;-3.904;2023-07-29T06:45:47;19.42;;;3.65;;
51006;SDS011;37034;47.886;-3.904;2023-07-29T06:48:13;19.40;;;3.78;;
51006;SDS011;37034;47.886;-3.904;2023-07-29T06:50:38;16.95;;;3.22;;
51006;SDS011;37034;47.886;-3.904;2023-07-29T06:53:04;17.20;;;3.10;;
51006;SDS011;37034;47.886;-3.904;2023-07-29T06:55:30;17.95;;;3.60;;
51006;SDS011;37034;47.886;-3.904;2023-07-29T06:57:55;14.30;;;2.65;;
51006;SDS011;37034;47.886;-3.904;2023-07-29T07:00:21;20.20;;;3.67;;
51006;SDS011;37034;47.886;-3.904;2023-07-29T07:02:46;15.60;;;3.92;;
51006;SDS011;37034;47.886;-3.904;2023-07-29T07:05:12;18.70;;;3.38;;
51006;SDS011;37034;47.886;-3.904;2023-07-29T07:07:38;14.00;;;3.20;;
51006;SDS011;37034;47.886;-3.904;2023-07-29T07:10:04;17.75;;;3.10;;
51006;SDS011;37034;47.886;-3.904;2023-07-29T07:12:30;12.85;;;3.15;;
51006;SDS011;37034;47.886;-3.904;2023-07-29T07:14:55;13.43;;;2.55;;
51006;SDS011;37034;47.886;-3.904;2023-07-29T07:17:21;23.55;;;4.00;;
51006;SDS011;37034;47.886;-3.904;2023-07-29T07:19:46;16.40;;;3.28;;
51006;SDS011;37034;47.886;-3.904;2023-07-29T07:22:12;17.15;;;2.97;;
51006;SDS011;37034;47.886;-3.904;2023-07-29T07:24:38;16.75;;;3.35;;
51006;SDS011;37034;47.886;-3.904;2023-07-29T07:27:03;14.63;;;2.47;;
51006;SDS011;37034;47.886;-3.904;2023-07-29T07:29:29;19.38;;;3.45;;
51006;SDS011;37034;47.886;-3.904;2023-07-29T07:31:55;15.65;;;3.63;;
51006;SDS011;37034;47.886;-3.904;2023-07-29T07:34:21;18.52;;;3.33;;
51006;SDS011;37034;47.886;-3.904;2023-07-29T07:36:47;13.15;;;3.17;;
51006;SDS011;37034;47.886;-3.904;2023-07-29T07:39:13;15.10;;;3.25;;
51006;SDS011;37034;47.886;-3.904;2023-07-29T07:41:39;18.38;;;3.38;;
51006;SDS011;37034;47.886;-3.904;2023-07-29T07:46:31;18.75;;;3.53;;
51006;SDS011;37034;47.886;-3.904;2023-07-29T07:48:56;16.58;;;2.97;;
51006;SDS011;37034;47.886;-3.904;2023-07-29T07:51:22;20.05;;;3.38;;
51006;SDS011;37034;47.886;-3.904;2023-07-29T07:53:48;14.23;;;3.38;;
51006;SDS011;37034;47.886;-3.904;2023-07-29T07:56:14;20.70;;;4.10;;
51006;SDS011;37034;47.886;-3.904;2023-07-29T07:58:40;21.23;;;4.35;;
51006;SDS011;37034;47.886;-3.904;2023-07-29T08:01:06;16.67;;;4.15;;
51006;SDS011;37034;47.886;-3.904;2023-07-29T08:03:33;14.68;;;2.97;;
51006;SDS011;37034;47.886;-3.904;2023-07-29T08:08:25;17.17;;;3.30;;
51006;SDS011;37034;47.886;-3.904;2023-07-29T08:10:55;16.50;;;3.28;;
51006;SDS011;37034;47.886;-3.904;2023-07-29T08:13:22;17.55;;;3.95;;
51006;SDS011;37034;47.886;-3.904;2023-07-29T08:15:50;14.38;;;3.58;;
51006;SDS011;37034;47.886;-3.904;2023-07-29T08:18:16;15.82;;;3.60;;
51006;SDS011;37034;47.886;-3.904;2023-07-29T08:23:23;13.57;;;3.42;;
51006;SDS011;37034;47.886;-3.904;2023-07-29T08:25:53;19.35;;;4.03;;
51006;SDS011;37034;47.886;-3.904;2023-07-29T08:28:21;16.50;;;3.67;;
51006;SDS011;37034;47.886;-3.904;2023-07-29T08:30:48;14.02;;;2.70;;
51006;SDS011;37034;47.886;-3.904;2023-07-29T08:33:14;14.10;;;3.55;;
51006;SDS011;37034;47.886;-3.904;2023-07-29T08:38:05;15.57;;;3.35;;
51006;SDS011;37034;47.886;-3.904;2023-07-29T08:40:31;13.93;;;3.50;;
51006;SDS011;37034;47.886;-3.904;2023-07-29T08:42:59;18.83;;;3.15;;
51006;SDS011;37034;47.886;-3.904;2023-07-29T08:45:32;19.70;;;3.70;;
51006;SDS011;37034;47.886;-3.904;2023-07-29T08:48:01;17.42;;;3.22;;
51006;SDS011;37034;47.886;-3.904;2023-07-29T08:50:32;21.70;;;3.70;;
51006;SDS011;37034;47.886;-3.904;2023-07-29T08:52:59;14.98;;;3.50;;
51006;SDS011;37034;47.886;-3.904;2023-07-29T08:55:28;14.93;;;3.67;;
51006;SDS011;37034;47.886;-3.904;2023-07-29T08:57:54;15.20;;;3.10;;
51006;SDS011;37034;47.886;-3.904;2023-07-29T09:00:21;14.13;;;3.03;;
51006;SDS011;37034;47.886;-3.904;2023-07-29T09:02:47;21.40;;;4.03;;
51006;SDS011;37034;47.886;-3.904;2023-07-29T09:05:13;24.35;;;4.07;;
51006;SDS011;37034;47.886;-3.904;2023-07-29T09:07:39;20.42;;;4.38;;
51006;SDS011;37034;47.886;-3.904;2023-07-29T09:10:08;12.18;;;2.95;;
51006;SDS011;37034;47.886;-3.904;2023-07-29T09:12:35;18.75;;;3.42;;
51006;SDS011;37034;47.886;-3.904;2023-07-29T09:15:01;13.57;;;3.38;;
51006;SDS011;37034;47.886;-3.904;2023-07-29T09:17:30;14.07;;;3.15;;
51006;SDS011;37034;47.886;-3.904;2023-07-29T09:19:59;12.80;;;3.10;;
51006;SDS011;37034;47.886;-3.904;2023-07-29T09:22:25;20.98;;;4.10;;
51006;SDS011;37034;47.886;-3.904;2023-07-29T09:24:52;16.48;;;3.38;;
51006;SDS011;37034;47.886;-3.904;2023-07-29T09:27:25;21.00;;;3.83;;
51006;SDS011;37034;47.886;-3.904;2023-07-29T09:29:52;17.45;;;3.30;;
51006;SDS011;37034;47.886;-3.904;2023-07-29T09:34:47;20.92;;;3.97;;
51006;SDS011;37034;47.886;-3.904;2023-07-29T09:37:22;14.98;;;3.50;;
51006;SDS011;37034;47.886;-3.904;2023-07-29T09:39:49;12.90;;;3.15;;
51006;SDS011;37034;47.886;-3.904;2023-07-29T09:42:18;14.85;;;3.38;;
51006;SDS011;37034;47.886;-3.904;2023-07-29T09:44:45;18.23;;;4.00;;
51006;SDS011;37034;47.886;-3.904;2023-07-29T09:49:47;16.02;;;3.25;;
51006;SDS011;37034;47.886;-3.904;2023-07-29T09:52:14;17.42;;;4.03;;
51006;SDS011;37034;47.886;-3.904;2023-07-29T09:54:43;15.45;;;3.08;;
51006;SDS011;37034;47.886;-3.904;2023-07-29T09:57:11;16.10;;;3.53;;
51006;SDS011;37034;47.886;-3.904;2023-07-29T09:59:41;17.20;;;3.00;;
51006;SDS011;37034;47.886;-3.904;2023-07-29T10:02:16;15.57;;;2.72;;
51006;SDS011;37034;47.886;-3.904;2023-07-29T10:04:42;13.30;;;3.60;;
51006;SDS011;37034;47.886;-3.904;2023-07-29T10:07:09;15.05;;;3.22;;
51006;SDS011;37034;47.886;-3.904;2023-07-29T10:09:37;16.23;;;3.15;;
51006;SDS011;37034;47.886;-3.904;2023-07-29T10:12:04;12.02;;;2.83;;
51006;SDS011;37034;47.886;-3.904;2023-07-29T10:14:31;13.38;;;3.40;;
51006;SDS011;37034;47.886;-3.904;2023-07-29T10:16:57;17.38;;;3.80;;
51006;SDS011;37034;47.886;-3.904;2023-07-29T10:19:24;13.48;;;3.45;;
51006;SDS011;37034;47.886;-3.904;2023-07-29T10:21:53;15.40;;;3.30;;
51006;SDS011;37034;47.886;-3.904;2023-07-29T10:24:22;12.18;;;2.75;;
51006;SDS011;37034;47.886;-3.904;2023-07-29T10:26:54;14.50;;;3.55;;
51006;SDS011;37034;47.886;-3.904;2023-07-29T10:29:24;15.02;;;3.00;;
51006;SDS011;37034;47.886;-3.904;2023-07-29T10:31:53;20.27;;;3.63;;
51006;SDS011;37034;47.886;-3.904;2023-07-29T10:34:22;18.98;;;4.80;;
51006;SDS011;37034;47.886;-3.904;2023-07-29T10:36:49;14.23;;;3.42;;
51006;SDS011;37034;47.886;-3.904;2023-07-29T10:39:16;14.70;;;3.28;;
51006;SDS011;37034;47.886;-3.904;2023-07-29T10:41:54;11.50;;;2.80;;
51006;SDS011;37034;47.886;-3.904;2023-07-29T10:47:14;14.25;;;3.30;;
51006;SDS011;37034;47.886;-3.904;2023-07-29T10:49:44;13.55;;;2.83;;
51006;SDS011;37034;47.886;-3.904;2023-07-29T10:52:14;19.13;;;4.45;;
51006;SDS011;37034;47.886;-3.904;2023-07-29T10:54:47;15.98;;;3.10;;
51006;SDS011;37034;47.886;-3.904;2023-07-29T10:57:14;18.83;;;4.07;;
51006;SDS011;37034;47.886;-3.904;2023-07-29T10:59:41;11.85;;;3.25;;
51006;SDS011;37034;47.886;-3.904;2023-07-29T11:02:19;14.35;;;3.30;;
51006;SDS011;37034;47.886;-3.904;2023-07-29T11:04:46;12.75;;;3.63;;
51006;SDS011;37034;47.886;-3.904;2023-07-29T11:09:42;14.70;;;4.13;;
51006;SDS011;37034;47.886;-3.904;2023-07-29T11:17:38;16.00;;;4.20;;
51006;SDS011;37034;47.886;-3.904;2023-07-29T11:20:12;12.10;;;2.90;;
51006;SDS011;37034;47.886;-3.904;2023-07-29T11:25:04;14.02;;;3.45;;
51006;SDS011;37034;47.886;-3.904;2023-07-29T11:27:32;15.95;;;3.00;;
51006;SDS011;37034;47.886;-3.904;2023-07-29T11:30:02;15.57;;;3.25;;
51006;SDS011;37034;47.886;-3.904;2023-07-29T11:32:33;14.10;;;3.03;;
51006;SDS011;37034;47.886;-3.904;2023-07-29T11:35:04;13.07;;;3.28;;
51006;SDS011;37034;47.886;-3.904;2023-07-29T11:37:30;15.48;;;3.10;;
51006;SDS011;37034;47.886;-3.904;2023-07-29T11:39:59;16.05;;;3.17;;
51006;SDS011;37034;47.886;-3.904;2023-07-29T11:42:27;15.13;;;3.00;;
51006;SDS011;37034;47.886;-3.904;2023-07-29T11:44:56;9.68;;;2.80;;
51006;SDS011;37034;47.886;-3.904;2023-07-29T11:47:23;15.25;;;3.13;;
51006;SDS011;37034;47.886;-3.904;2023-07-29T11:49:49;12.75;;;2.63;;
51006;SDS011;37034;47.886;-3.904;2023-07-29T11:52:14;10.98;;;2.40;;
51006;SDS011;37034;47.886;-3.904;2023-07-29T11:54:44;13.18;;;3.00;;
51006;SDS011;37034;47.886;-3.904;2023-07-29T11:57:10;13.65;;;3.15;;
51006;SDS011;37034;47.886;-3.904;2023-07-29T11:59:36;10.80;;;2.25;;
51006;SDS011;37034;47.886;-3.904;2023-07-29T12:02:06;11.68;;;2.78;;
51006;SDS011;37034;47.886;-3.904;2023-07-29T12:04:43;10.32;;;2.55;;
51006;SDS011;37034;47.886;-3.904;2023-07-29T12:07:10;7.10;;;1.92;;
51006;SDS011;37034;47.886;-3.904;2023-07-29T12:09:37;9.48;;;2.38;;
51006;SDS011;37034;47.886;-3.904;2023-07-29T12:12:04;3.53;;;1.20;;
51006;SDS011;37034;47.886;-3.904;2023-07-29T12:14:31;3.33;;;0.80;;
51006;SDS011;37034;47.886;-3.904;2023-07-29T12:16:59;2.25;;;0.70;;
51006;SDS011;37034;47.886;-3.904;2023-07-29T12:19:31;2.53;;;0.60;;
51006;SDS011;37034;47.886;-3.904;2023-07-29T12:22:02;1.27;;;0.50;;
51006;SDS011;37034;47.886;-3.904;2023-07-29T12:24:32;0.52;;;0.40;;
51006;SDS011;37034;47.886;-3.904;2023-07-29T12:26:58;1.17;;;0.50;;
51006;SDS011;37034;47.886;-3.904;2023-07-29T12:32:03;1.70;;;0.60;;
51006;SDS011;37034;47.886;-3.904;2023-07-29T12:34:29;2.47;;;0.75;;
51006;SDS011;37034;47.886;-3.904;2023-07-29T12:36:56;2.88;;;0.90;;
51006;SDS011;37034;47.886;-3.904;2023-07-29T12:41:57;3.35;;;1.00;;
51006;SDS011;37034;47.886;-3.904;2023-07-29T12:44:24;2.45;;;1.10;;
51006;SDS011;37034;47.886;-3.904;2023-07-29T12:46:52;3.88;;;1.05;;
51006;SDS011;37034;47.886;-3.904;2023-07-29T12:49:18;3.63;;;1.00;;
51006;SDS011;37034;47.886;-3.904;2023-07-29T12:51:43;3.88;;;1.90;;
51006;SDS011;37034;47.886;-3.904;2023-07-29T12:56:35;6.18;;;1.75;;
51006;SDS011;37034;47.886;-3.904;2023-07-29T12:59:01;6.93;;;1.90;;
51006;SDS011;37034;47.886;-3.904;2023-07-29T13:01:28;4.05;;;1.60;;
51006;SDS011;37034;47.886;-3.904;2023-07-29T13:03:54;5.35;;;2.00;;
51006;SDS011;37034;47.886;-3.904;2023-07-29T13:06:21;3.42;;;1.45;;
51006;SDS011;37034;47.886;-3.904;2023-07-29T13:08:47;6.82;;;1.65;;
51006;SDS011;37034;47.886;-3.904;2023-07-29T13:11:13;5.45;;;1.70;;
51006;SDS011;37034;47.886;-3.904;2023-07-29T13:13:40;3.97;;;1.30;;
51006;SDS011;37034;47.886;-3.904;2023-07-29T13:16:05;3.95;;;1.33;;
51006;SDS011;37034;47.886;-3.904;2023-07-29T13:18:31;5.43;;;1.67;;
51006;SDS011;37034;47.886;-3.904;2023-07-29T13:20:57;4.03;;;1.25;;
51006;SDS011;37034;47.886;-3.904;2023-07-29T13:23:23;4.47;;;1.45;;
51006;SDS011;37034;47.886;-3.904;2023-07-29T13:25:49;5.80;;;1.40;;
51006;SDS011;37034;47.886;-3.904;2023-07-29T13:28:15;7.38;;;2.20;;
51006;SDS011;37034;47.886;-3.904;2023-07-29T13:33:07;6.35;;;2.20;;
51006;SDS011;37034;47.886;-3.904;2023-07-29T13:35:33;5.85;;;2.03;;
51006;SDS011;37034;47.886;-3.904;2023-07-29T13:37:59;6.60;;;1.80;;
51006;SDS011;37034;47.886;-3.904;2023-07-29T13:40:25;9.10;;;2.25;;
51006;SDS011;37034;47.886;-3.904;2023-07-29T13:42:51;9.30;;;2.67;;
51006;SDS011;37034;47.886;-3.904;2023-07-29T13:45:17;7.40;;;2.22;;
51006;SDS011;37034;47.886;-3.904;2023-07-29T13:47:43;9.40;;;1.90;;
51006;SDS011;37034;47.886;-3.904;2023-07-29T13:50:09;12.45;;;2.45;;
51006;SDS011;37034;47.886;-3.904;2023-07-29T13:52:35;10.30;;;2.20;;
51006;SDS011;37034;47.886;-3.904;2023-07-29T13:55:02;11.38;;;2.25;;
51006;SDS011;37034;47.886;-3.904;2023-07-29T13:57:28;8.43;;;2.35;;
51006;SDS011;37034;47.886;-3.904;2023-07-29T13:59:54;8.95;;;2.35;;
51006;SDS011;37034;47.886;-3.904;2023-07-29T14:02:19;8.57;;;2.20;;
51006;SDS011;37034;47.886;-3.904;2023-07-29T14:04:45;10.07;;;2.35;;
51006;SDS011;37034;47.886;-3.904;2023-07-29T14:07:11;6.82;;;1.75;;
51006;SDS011;37034;47.886;-3.904;2023-07-29T14:09:36;8.70;;;2.38;;
51006;SDS011;37034;47.886;-3.904;2023-07-29T14:12:03;7.00;;;1.90;;
51006;SDS011;37034;47.886;-3.904;2023-07-29T14:14:29;7.45;;;2.20;;
51006;SDS011;37034;47.886;-3.904;2023-07-29T14:16:55;8.23;;;2.20;;
51006;SDS011;37034;47.886;-3.904;2023-07-29T14:19:21;11.25;;;3.10;;
51006;SDS011;37034;47.886;-3.904;2023-07-29T14:21:46;8.85;;;2.00;;
51006;SDS011;37034;47.886;-3.904;2023-07-29T14:26:38;10.10;;;2.17;;
51006;SDS011;37034;47.886;-3.904;2023-07-29T14:29:04;9.18;;;1.92;;
51006;SDS011;37034;47.886;-3.904;2023-07-29T14:31:29;11.27;;;3.15;;
51006;SDS011;37034;47.886;-3.904;2023-07-29T14:33:55;10.18;;;2.50;;
51006;SDS011;37034;47.886;-3.904;2023-07-29T14:36:20;11.70;;;2.20;;
51006;SDS011;37034;47.886;-3.904;2023-07-29T14:38:46;11.02;;;2.70;;
51006;SDS011;37034;47.886;-3.904;2023-07-29T14:41:12;7.57;;;2.00;;
51006;SDS011;37034;47.886;-3.904;2023-07-29T14:43:38;12.02;;;2.60;;
51006;SDS011;37034;47.886;-3.904;2023-07-29T14:46:04;12.75;;;2.70;;
51006;SDS011;37034;47.886;-3.904;2023-07-29T14:48:30;11.25;;;3.00;;
51006;SDS011;37034;47.886;-3.904;2023-07-29T14:50:56;13.90;;;2.60;;
51006;SDS011;37034;47.886;-3.904;2023-07-29T14:53:22;14.55;;;3.17;;
51006;SDS011;37034;47.886;-3.904;2023-07-29T14:55:47;17.30;;;3.05;;
51006;SDS011;37034;47.886;-3.904;2023-07-29T14:58:13;10.82;;;2.15;;
51006;SDS011;37034;47.886;-3.904;2023-07-29T15:00:39;10.63;;;2.63;;
51006;SDS011;37034;47.886;-3.904;2023-07-29T15:03:05;14.68;;;2.45;;
51006;SDS011;37034;47.886;-3.904;2023-07-29T15:05:32;9.77;;;2.22;;
51006;SDS011;37034;47.886;-3.904;2023-07-29T15:07:58;13.82;;;2.58;;
51006;SDS011;37034;47.886;-3.904;2023-07-29T15:10:23;10.60;;;2.10;;
51006;SDS011;37034;47.886;-3.904;2023-07-29T15:12:49;10.13;;;2.38;;
51006;SDS011;37034;47.886;-3.904;2023-07-29T15:15:15;9.85;;;2.28;;
51006;SDS011;37034;47.886;-3.904;2023-07-29T15:17:40;15.02;;;2.20;;
51006;SDS011;37034;47.886;-3.904;2023-07-29T15:20:06;11.70;;;2.00;;
51006;SDS011;37034;47.886;-3.904;2023-07-29T15:22:32;15.18;;;2.15;;